sensor_id;sensor_type;location;lat;lon;timestamp;P1;durP1;ratioP1;P2;durP2;ratioP2
39948;SDS011;29070;48.102;-1.652;2023-05-21T00:02:20;4.50;;;2.03;;
39948;SDS011;29070;48.102;-1.652;2023-05-21T00:07:21;7.55;;;2.47;;
39948;SDS011;29070;48.102;-1.652;2023-05-21T00:12:22;5.53;;;2.63;;
39948;SDS011;29070;48.102;-1.652;2023-05-21T00:17:22;8.00;;;2.50;;
39948;SDS011;29070;48.102;-1.652;2023-05-21T00:22:22;13.63;;;2.77;;
39948;SDS011;29070;48.102;-1.652;2023-05-21T00:27:23;6.53;;;2.73;;
39948;SDS011;29070;48.102;-1.652;2023-05-21T00:32:23;8.93;;;3.07;;
39948;SDS011;29070;48.102;-1.652;2023-05-21T00:37:23;7.97;;;2.87;;
39948;SDS011;29070;48.102;-1.652;2023-05-21T00:42:24;15.77;;;8.50;;
39948;SDS011;29070;48.102;-1.652;2023-05-21T00:47:26;10.00;;;6.70;;
39948;SDS011;29070;48.102;-1.652;2023-05-21T00:52:28;12.40;;;3.53;;
39948;SDS011;29070;48.102;-1.652;2023-05-21T00:57:28;9.00;;;2.72;;
39948;SDS011;29070;48.102;-1.652;2023-05-21T01:02:32;6.10;;;2.10;;
39948;SDS011;29070;48.102;-1.652;2023-05-21T01:07:33;7.43;;;2.72;;
39948;SDS011;29070;48.102;-1.652;2023-05-21T01:12:36;9.75;;;2.20;;
39948;SDS011;29070;48.102;-1.652;2023-05-21T01:17:38;8.55;;;2.40;;
39948;SDS011;29070;48.102;-1.652;2023-05-21T01:27:49;17.10;;;8.82;;
39948;SDS011;29070;48.102;-1.652;2023-05-21T01:32:54;10.60;;;4.63;;
39948;SDS011;29070;48.102;-1.652;2023-05-21T01:43:21;8.88;;;2.42;;
39948;SDS011;29070;48.102;-1.652;2023-05-21T01:48:24;8.73;;;2.63;;
39948;SDS011;29070;48.102;-1.652;2023-05-21T01:53:27;12.15;;;2.38;;
39948;SDS011;29070;48.102;-1.652;2023-05-21T01:58:27;5.57;;;2.13;;
39948;SDS011;29070;48.102;-1.652;2023-05-21T02:03:27;7.93;;;2.43;;
39948;SDS011;29070;48.102;-1.652;2023-05-21T02:08:29;9.07;;;1.98;;
39948;SDS011;29070;48.102;-1.652;2023-05-21T02:13:30;9.57;;;2.08;;
39948;SDS011;29070;48.102;-1.652;2023-05-21T02:18:31;7.13;;;2.08;;
39948;SDS011;29070;48.102;-1.652;2023-05-21T02:23:33;7.68;;;2.03;;
39948;SDS011;29070;48.102;-1.652;2023-05-21T02:28:33;7.83;;;2.80;;
39948;SDS011;29070;48.102;-1.652;2023-05-21T02:33:35;5.40;;;1.75;;
39948;SDS011;29070;48.102;-1.652;2023-05-21T02:38:35;9.40;;;1.87;;
39948;SDS011;29070;48.102;-1.652;2023-05-21T02:43:37;8.07;;;2.10;;
39948;SDS011;29070;48.102;-1.652;2023-05-21T02:48:37;5.70;;;1.87;;
39948;SDS011;29070;48.102;-1.652;2023-05-21T02:53:38;6.23;;;1.90;;
39948;SDS011;29070;48.102;-1.652;2023-05-21T02:58:38;6.20;;;1.98;;
39948;SDS011;29070;48.102;-1.652;2023-05-21T03:03:38;8.77;;;1.93;;
39948;SDS011;29070;48.102;-1.652;2023-05-21T03:08:39;14.55;;;2.88;;
39948;SDS011;29070;48.102;-1.652;2023-05-21T03:13:39;9.17;;;2.00;;
39948;SDS011;29070;48.102;-1.652;2023-05-21T03:18:41;6.65;;;1.90;;
39948;SDS011;29070;48.102;-1.652;2023-05-21T03:23:42;6.35;;;1.65;;
39948;SDS011;29070;48.102;-1.652;2023-05-21T03:28:42;12.70;;;2.23;;
39948;SDS011;29070;48.102;-1.652;2023-05-21T03:33:42;3.77;;;1.87;;
39948;SDS011;29070;48.102;-1.652;2023-05-21T03:38:43;9.20;;;2.00;;
39948;SDS011;29070;48.102;-1.652;2023-05-21T03:43:43;6.53;;;2.00;;
39948;SDS011;29070;48.102;-1.652;2023-05-21T03:48:44;9.90;;;3.03;;
39948;SDS011;29070;48.102;-1.652;2023-05-21T03:53:44;12.57;;;2.65;;
39948;SDS011;29070;48.102;-1.652;2023-05-21T03:58:45;8.77;;;2.83;;
39948;SDS011;29070;48.102;-1.652;2023-05-21T04:03:45;5.93;;;2.35;;
39948;SDS011;29070;48.102;-1.652;2023-05-21T04:08:46;8.63;;;2.00;;
39948;SDS011;29070;48.102;-1.652;2023-05-21T04:13:47;10.52;;;2.08;;
39948;SDS011;29070;48.102;-1.652;2023-05-21T04:18:47;10.07;;;2.33;;
39948;SDS011;29070;48.102;-1.652;2023-05-21T04:23:47;8.73;;;2.20;;
39948;SDS011;29070;48.102;-1.652;2023-05-21T04:28:48;8.80;;;2.20;;
39948;SDS011;29070;48.102;-1.652;2023-05-21T04:33:49;9.52;;;2.92;;
39948;SDS011;29070;48.102;-1.652;2023-05-21T04:38:49;13.40;;;2.27;;
39948;SDS011;29070;48.102;-1.652;2023-05-21T04:43:50;8.60;;;1.93;;
39948;SDS011;29070;48.102;-1.652;2023-05-21T04:48:54;5.45;;;2.55;;
39948;SDS011;29070;48.102;-1.652;2023-05-21T04:53:56;13.45;;;2.63;;
39948;SDS011;29070;48.102;-1.652;2023-05-21T04:58:57;15.65;;;2.90;;
39948;SDS011;29070;48.102;-1.652;2023-05-21T05:03:58;7.88;;;2.50;;
39948;SDS011;29070;48.102;-1.652;2023-05-21T05:08:58;13.23;;;2.60;;
39948;SDS011;29070;48.102;-1.652;2023-05-21T05:13:58;12.27;;;2.93;;
39948;SDS011;29070;48.102;-1.652;2023-05-21T05:18:59;9.93;;;3.13;;
39948;SDS011;29070;48.102;-1.652;2023-05-21T05:23:59;13.23;;;4.22;;
39948;SDS011;29070;48.102;-1.652;2023-05-21T05:28:59;13.87;;;3.70;;
39948;SDS011;29070;48.102;-1.652;2023-05-21T05:34:00;13.00;;;3.88;;
39948;SDS011;29070;48.102;-1.652;2023-05-21T05:39:00;14.03;;;4.13;;
39948;SDS011;29070;48.102;-1.652;2023-05-21T05:44:00;15.57;;;4.43;;
39948;SDS011;29070;48.102;-1.652;2023-05-21T05:49:01;18.50;;;5.03;;
39948;SDS011;29070;48.102;-1.652;2023-05-21T05:54:01;13.17;;;4.17;;
39948;SDS011;29070;48.102;-1.652;2023-05-21T05:59:01;8.70;;;3.90;;
39948;SDS011;29070;48.102;-1.652;2023-05-21T06:04:02;8.63;;;4.60;;
39948;SDS011;29070;48.102;-1.652;2023-05-21T06:09:02;15.20;;;4.80;;
39948;SDS011;29070;48.102;-1.652;2023-05-21T06:14:03;13.77;;;4.90;;
39948;SDS011;29070;48.102;-1.652;2023-05-21T06:19:03;20.30;;;5.35;;
39948;SDS011;29070;48.102;-1.652;2023-05-21T06:24:03;15.43;;;5.03;;
39948;SDS011;29070;48.102;-1.652;2023-05-21T06:29:04;14.30;;;4.65;;
39948;SDS011;29070;48.102;-1.652;2023-05-21T06:34:04;12.93;;;5.23;;
39948;SDS011;29070;48.102;-1.652;2023-05-21T06:39:05;15.70;;;5.73;;
39948;SDS011;29070;48.102;-1.652;2023-05-21T06:44:05;16.60;;;5.60;;
39948;SDS011;29070;48.102;-1.652;2023-05-21T06:49:06;17.03;;;5.23;;
39948;SDS011;29070;48.102;-1.652;2023-05-21T06:54:06;15.68;;;5.47;;
39948;SDS011;29070;48.102;-1.652;2023-05-21T06:59:15;15.05;;;4.97;;
39948;SDS011;29070;48.102;-1.652;2023-05-21T07:04:16;16.92;;;5.15;;
39948;SDS011;29070;48.102;-1.652;2023-05-21T07:09:16;15.07;;;5.27;;
39948;SDS011;29070;48.102;-1.652;2023-05-21T07:14:17;13.48;;;5.07;;
39948;SDS011;29070;48.102;-1.652;2023-05-21T07:19:17;11.75;;;5.05;;
39948;SDS011;29070;48.102;-1.652;2023-05-21T07:24:18;13.68;;;5.22;;
39948;SDS011;29070;48.102;-1.652;2023-05-21T07:29:18;13.23;;;5.63;;
39948;SDS011;29070;48.102;-1.652;2023-05-21T07:34:19;12.57;;;5.03;;
39948;SDS011;29070;48.102;-1.652;2023-05-21T07:39:19;21.67;;;5.18;;
39948;SDS011;29070;48.102;-1.652;2023-05-21T07:44:20;12.38;;;5.03;;
39948;SDS011;29070;48.102;-1.652;2023-05-21T07:49:20;10.25;;;4.57;;
39948;SDS011;29070;48.102;-1.652;2023-05-21T07:54:20;10.20;;;4.53;;
39948;SDS011;29070;48.102;-1.652;2023-05-21T07:59:21;14.15;;;5.00;;
39948;SDS011;29070;48.102;-1.652;2023-05-21T08:04:21;15.67;;;5.37;;
39948;SDS011;29070;48.102;-1.652;2023-05-21T08:09:21;17.37;;;5.30;;
39948;SDS011;29070;48.102;-1.652;2023-05-21T08:14:22;15.33;;;5.80;;
39948;SDS011;29070;48.102;-1.652;2023-05-21T08:19:22;16.20;;;5.43;;
39948;SDS011;29070;48.102;-1.652;2023-05-21T08:24:23;13.93;;;5.20;;
39948;SDS011;29070;48.102;-1.652;2023-05-21T08:29:25;15.48;;;5.95;;
39948;SDS011;29070;48.102;-1.652;2023-05-21T08:34:25;17.57;;;5.73;;
39948;SDS011;29070;48.102;-1.652;2023-05-21T08:39:26;9.83;;;5.57;;
39948;SDS011;29070;48.102;-1.652;2023-05-21T08:44:26;14.30;;;5.97;;
39948;SDS011;29070;48.102;-1.652;2023-05-21T08:49:29;15.50;;;5.97;;
39948;SDS011;29070;48.102;-1.652;2023-05-21T08:54:34;15.95;;;6.50;;
39948;SDS011;29070;48.102;-1.652;2023-05-21T08:59:35;11.55;;;5.28;;
39948;SDS011;29070;48.102;-1.652;2023-05-21T09:04:39;13.73;;;5.10;;
39948;SDS011;29070;48.102;-1.652;2023-05-21T09:09:43;11.20;;;5.88;;
39948;SDS011;29070;48.102;-1.652;2023-05-21T09:14:53;13.43;;;5.25;;
39948;SDS011;29070;48.102;-1.652;2023-05-21T09:25:11;12.73;;;5.97;;
39948;SDS011;29070;48.102;-1.652;2023-05-21T09:30:14;11.45;;;5.90;;
39948;SDS011;29070;48.102;-1.652;2023-05-21T09:35:16;12.82;;;5.20;;
39948;SDS011;29070;48.102;-1.652;2023-05-21T09:40:18;13.50;;;5.38;;
39948;SDS011;29070;48.102;-1.652;2023-05-21T09:50:25;14.75;;;5.82;;
39948;SDS011;29070;48.102;-1.652;2023-05-21T09:55:28;13.02;;;5.18;;
39948;SDS011;29070;48.102;-1.652;2023-05-21T10:00:30;13.20;;;5.75;;
39948;SDS011;29070;48.102;-1.652;2023-05-21T10:05:30;11.02;;;6.07;;
39948;SDS011;29070;48.102;-1.652;2023-05-21T10:10:32;13.00;;;6.63;;
39948;SDS011;29070;48.102;-1.652;2023-05-21T10:15:42;11.27;;;5.40;;
39948;SDS011;29070;48.102;-1.652;2023-05-21T10:20:44;11.45;;;5.82;;
39948;SDS011;29070;48.102;-1.652;2023-05-21T10:25:45;10.73;;;5.55;;
39948;SDS011;29070;48.102;-1.652;2023-05-21T10:30:46;11.15;;;5.20;;
39948;SDS011;29070;48.102;-1.652;2023-05-21T10:35:47;12.57;;;5.43;;
39948;SDS011;29070;48.102;-1.652;2023-05-21T10:40:50;13.13;;;5.63;;
39948;SDS011;29070;48.102;-1.652;2023-05-21T11:01:27;8.75;;;4.07;;
39948;SDS011;29070;48.102;-1.652;2023-05-21T11:06:32;13.45;;;6.43;;
39948;SDS011;29070;48.102;-1.652;2023-05-21T11:11:39;12.25;;;5.07;;
39948;SDS011;29070;48.102;-1.652;2023-05-21T11:16:44;11.05;;;5.25;;
39948;SDS011;29070;48.102;-1.652;2023-05-21T11:21:50;11.32;;;5.35;;
39948;SDS011;29070;48.102;-1.652;2023-05-21T11:31:58;11.02;;;5.25;;
39948;SDS011;29070;48.102;-1.652;2023-05-21T11:47:30;12.25;;;5.70;;
39948;SDS011;29070;48.102;-1.652;2023-05-21T11:52:31;10.68;;;5.50;;
39948;SDS011;29070;48.102;-1.652;2023-05-21T11:57:34;13.52;;;5.78;;
39948;SDS011;29070;48.102;-1.652;2023-05-21T12:02:34;12.73;;;4.80;;
39948;SDS011;29070;48.102;-1.652;2023-05-21T12:07:34;11.83;;;5.40;;
39948;SDS011;29070;48.102;-1.652;2023-05-21T12:12:35;9.80;;;5.05;;
39948;SDS011;29070;48.102;-1.652;2023-05-21T12:17:36;8.15;;;3.95;;
39948;SDS011;29070;48.102;-1.652;2023-05-21T12:22:41;9.05;;;4.95;;
39948;SDS011;29070;48.102;-1.652;2023-05-21T12:27:42;11.82;;;5.30;;
39948;SDS011;29070;48.102;-1.652;2023-05-21T12:32:44;9.05;;;4.82;;
39948;SDS011;29070;48.102;-1.652;2023-05-21T12:37:44;11.13;;;5.53;;
39948;SDS011;29070;48.102;-1.652;2023-05-21T12:42:44;8.63;;;5.10;;
39948;SDS011;29070;48.102;-1.652;2023-05-21T12:47:46;13.33;;;4.53;;
39948;SDS011;29070;48.102;-1.652;2023-05-21T12:52:48;16.77;;;5.50;;
39948;SDS011;29070;48.102;-1.652;2023-05-21T12:58:03;12.43;;;4.57;;
39948;SDS011;29070;48.102;-1.652;2023-05-21T13:03:09;11.02;;;5.22;;
39948;SDS011;29070;48.102;-1.652;2023-05-21T13:08:10;12.13;;;5.57;;
39948;SDS011;29070;48.102;-1.652;2023-05-21T13:13:13;12.40;;;5.30;;
39948;SDS011;29070;48.102;-1.652;2023-05-21T13:18:13;12.83;;;5.30;;
39948;SDS011;29070;48.102;-1.652;2023-05-21T13:23:15;12.90;;;4.80;;
39948;SDS011;29070;48.102;-1.652;2023-05-21T13:28:15;10.73;;;4.63;;
39948;SDS011;29070;48.102;-1.652;2023-05-21T13:33:15;9.23;;;4.20;;
39948;SDS011;29070;48.102;-1.652;2023-05-21T13:38:16;8.60;;;4.23;;
39948;SDS011;29070;48.102;-1.652;2023-05-21T13:43:17;9.27;;;4.80;;
39948;SDS011;29070;48.102;-1.652;2023-05-21T13:48:17;12.07;;;4.53;;
39948;SDS011;29070;48.102;-1.652;2023-05-21T13:53:17;7.40;;;4.23;;
39948;SDS011;29070;48.102;-1.652;2023-05-21T13:58:18;9.53;;;3.87;;
39948;SDS011;29070;48.102;-1.652;2023-05-21T14:03:18;9.63;;;3.63;;
39948;SDS011;29070;48.102;-1.652;2023-05-21T14:08:19;9.18;;;3.80;;
39948;SDS011;29070;48.102;-1.652;2023-05-21T14:13:20;7.53;;;3.40;;
39948;SDS011;29070;48.102;-1.652;2023-05-21T14:18:20;10.10;;;3.93;;
39948;SDS011;29070;48.102;-1.652;2023-05-21T14:23:20;9.30;;;3.90;;
39948;SDS011;29070;48.102;-1.652;2023-05-21T14:28:20;8.60;;;3.10;;
39948;SDS011;29070;48.102;-1.652;2023-05-21T14:33:21;7.27;;;3.37;;
39948;SDS011;29070;48.102;-1.652;2023-05-21T14:38:21;11.57;;;4.33;;
39948;SDS011;29070;48.102;-1.652;2023-05-21T14:43:22;8.97;;;3.43;;
39948;SDS011;29070;48.102;-1.652;2023-05-21T14:48:22;12.52;;;4.07;;
39948;SDS011;29070;48.102;-1.652;2023-05-21T14:53:23;8.60;;;4.13;;
39948;SDS011;29070;48.102;-1.652;2023-05-21T14:58:23;15.23;;;4.03;;
39948;SDS011;29070;48.102;-1.652;2023-05-21T15:03:23;9.30;;;3.80;;
39948;SDS011;29070;48.102;-1.652;2023-05-21T15:08:24;8.47;;;3.67;;
39948;SDS011;29070;48.102;-1.652;2023-05-21T15:13:24;7.95;;;3.83;;
39948;SDS011;29070;48.102;-1.652;2023-05-21T15:18:26;9.80;;;3.63;;
39948;SDS011;29070;48.102;-1.652;2023-05-21T15:23:28;10.25;;;3.88;;
39948;SDS011;29070;48.102;-1.652;2023-05-21T15:28:28;9.30;;;3.50;;
39948;SDS011;29070;48.102;-1.652;2023-05-21T15:33:28;11.70;;;2.87;;
39948;SDS011;29070;48.102;-1.652;2023-05-21T15:38:29;8.47;;;3.13;;
39948;SDS011;29070;48.102;-1.652;2023-05-21T15:43:29;8.90;;;3.17;;
39948;SDS011;29070;48.102;-1.652;2023-05-21T15:48:29;8.90;;;4.20;;
39948;SDS011;29070;48.102;-1.652;2023-05-21T15:53:30;9.70;;;3.97;;
39948;SDS011;29070;48.102;-1.652;2023-05-21T15:58:30;10.17;;;3.17;;
39948;SDS011;29070;48.102;-1.652;2023-05-21T16:03:31;12.87;;;4.00;;
39948;SDS011;29070;48.102;-1.652;2023-05-21T16:08:31;7.27;;;3.13;;
39948;SDS011;29070;48.102;-1.652;2023-05-21T16:13:31;11.70;;;3.75;;
39948;SDS011;29070;48.102;-1.652;2023-05-21T16:18:32;11.43;;;3.63;;
39948;SDS011;29070;48.102;-1.652;2023-05-21T16:23:32;8.73;;;3.90;;
39948;SDS011;29070;48.102;-1.652;2023-05-21T16:28:33;13.80;;;3.80;;
39948;SDS011;29070;48.102;-1.652;2023-05-21T16:33:34;6.53;;;2.72;;
39948;SDS011;29070;48.102;-1.652;2023-05-21T16:38:34;8.23;;;3.13;;
39948;SDS011;29070;48.102;-1.652;2023-05-21T16:43:35;7.25;;;3.30;;
39948;SDS011;29070;48.102;-1.652;2023-05-21T16:48:36;8.68;;;3.10;;
39948;SDS011;29070;48.102;-1.652;2023-05-21T16:53:38;11.23;;;3.28;;
39948;SDS011;29070;48.102;-1.652;2023-05-21T16:58:38;7.60;;;2.83;;
39948;SDS011;29070;48.102;-1.652;2023-05-21T17:03:38;10.17;;;4.93;;
39948;SDS011;29070;48.102;-1.652;2023-05-21T17:08:39;11.55;;;4.90;;
39948;SDS011;29070;48.102;-1.652;2023-05-21T17:13:41;13.32;;;4.85;;
39948;SDS011;29070;48.102;-1.652;2023-05-21T17:18:41;15.63;;;5.57;;
39948;SDS011;29070;48.102;-1.652;2023-05-21T17:23:42;19.20;;;7.33;;
39948;SDS011;29070;48.102;-1.652;2023-05-21T17:28:42;10.57;;;3.50;;
39948;SDS011;29070;48.102;-1.652;2023-05-21T17:33:42;5.50;;;3.57;;
39948;SDS011;29070;48.102;-1.652;2023-05-21T17:38:43;8.60;;;3.83;;
39948;SDS011;29070;48.102;-1.652;2023-05-21T17:43:44;6.23;;;3.00;;
39948;SDS011;29070;48.102;-1.652;2023-05-21T17:48:44;7.22;;;2.95;;
39948;SDS011;29070;48.102;-1.652;2023-05-21T17:53:44;6.87;;;3.00;;
39948;SDS011;29070;48.102;-1.652;2023-05-21T17:58:45;13.67;;;5.70;;
39948;SDS011;29070;48.102;-1.652;2023-05-21T18:03:45;7.77;;;3.60;;
39948;SDS011;29070;48.102;-1.652;2023-05-21T18:08:46;10.15;;;3.30;;
39948;SDS011;29070;48.102;-1.652;2023-05-21T18:13:52;11.67;;;3.60;;
39948;SDS011;29070;48.102;-1.652;2023-05-21T18:18:53;14.73;;;3.00;;
39948;SDS011;29070;48.102;-1.652;2023-05-21T18:23:53;28.00;;;13.67;;
39948;SDS011;29070;48.102;-1.652;2023-05-21T18:28:57;7.80;;;4.53;;
39948;SDS011;29070;48.102;-1.652;2023-05-21T18:33:58;9.45;;;3.55;;
39948;SDS011;29070;48.102;-1.652;2023-05-21T18:38:58;9.27;;;3.33;;
39948;SDS011;29070;48.102;-1.652;2023-05-21T18:43:58;7.50;;;3.27;;
39948;SDS011;29070;48.102;-1.652;2023-05-21T18:49:00;12.02;;;3.25;;
39948;SDS011;29070;48.102;-1.652;2023-05-21T18:54:01;9.40;;;2.80;;
39948;SDS011;29070;48.102;-1.652;2023-05-21T18:59:01;9.40;;;3.38;;
39948;SDS011;29070;48.102;-1.652;2023-05-21T19:04:01;9.52;;;3.38;;
39948;SDS011;29070;48.102;-1.652;2023-05-21T19:09:02;10.20;;;3.92;;
39948;SDS011;29070;48.102;-1.652;2023-05-21T19:14:03;5.73;;;2.87;;
39948;SDS011;29070;48.102;-1.652;2023-05-21T19:19:03;8.98;;;3.92;;
39948;SDS011;29070;48.102;-1.652;2023-05-21T19:24:04;9.98;;;3.33;;
39948;SDS011;29070;48.102;-1.652;2023-05-21T19:29:05;6.63;;;2.50;;
39948;SDS011;29070;48.102;-1.652;2023-05-21T19:34:05;7.23;;;2.50;;
39948;SDS011;29070;48.102;-1.652;2023-05-21T19:39:09;9.20;;;2.75;;
39948;SDS011;29070;48.102;-1.652;2023-05-21T19:44:09;12.37;;;2.87;;
39948;SDS011;29070;48.102;-1.652;2023-05-21T19:49:10;6.17;;;2.97;;
39948;SDS011;29070;48.102;-1.652;2023-05-21T19:54:12;4.57;;;2.00;;
39948;SDS011;29070;48.102;-1.652;2023-05-21T19:59:13;6.00;;;2.30;;
39948;SDS011;29070;48.102;-1.652;2023-05-21T20:04:13;8.05;;;2.63;;
39948;SDS011;29070;48.102;-1.652;2023-05-21T20:09:14;3.80;;;1.97;;
39948;SDS011;29070;48.102;-1.652;2023-05-21T20:14:15;6.07;;;2.42;;
39948;SDS011;29070;48.102;-1.652;2023-05-21T20:19:16;5.73;;;2.20;;
39948;SDS011;29070;48.102;-1.652;2023-05-21T20:24:16;10.37;;;2.17;;
39948;SDS011;29070;48.102;-1.652;2023-05-21T20:29:16;6.23;;;2.40;;
39948;SDS011;29070;48.102;-1.652;2023-05-21T20:34:17;6.67;;;2.17;;
39948;SDS011;29070;48.102;-1.652;2023-05-21T20:39:19;7.05;;;2.10;;
39948;SDS011;29070;48.102;-1.652;2023-05-21T20:44:21;6.82;;;2.45;;
39948;SDS011;29070;48.102;-1.652;2023-05-21T20:49:22;8.75;;;2.20;;
39948;SDS011;29070;48.102;-1.652;2023-05-21T20:54:23;5.78;;;2.22;;
39948;SDS011;29070;48.102;-1.652;2023-05-21T20:59:24;5.27;;;2.67;;
39948;SDS011;29070;48.102;-1.652;2023-05-21T21:04:26;6.32;;;2.42;;
39948;SDS011;29070;48.102;-1.652;2023-05-21T21:09:26;4.83;;;2.20;;
39948;SDS011;29070;48.102;-1.652;2023-05-21T21:14:26;6.93;;;2.43;;
39948;SDS011;29070;48.102;-1.652;2023-05-21T21:19:27;6.60;;;2.33;;
39948;SDS011;29070;48.102;-1.652;2023-05-21T21:24:27;5.63;;;2.70;;
39948;SDS011;29070;48.102;-1.652;2023-05-21T21:29:28;5.60;;;2.83;;
39948;SDS011;29070;48.102;-1.652;2023-05-21T21:34:28;4.93;;;2.63;;
39948;SDS011;29070;48.102;-1.652;2023-05-21T21:39:28;6.97;;;2.57;;
39948;SDS011;29070;48.102;-1.652;2023-05-21T21:44:29;5.50;;;2.70;;
39948;SDS011;29070;48.102;-1.652;2023-05-21T21:49:29;5.17;;;2.43;;
39948;SDS011;29070;48.102;-1.652;2023-05-21T21:54:29;4.90;;;2.50;;
39948;SDS011;29070;48.102;-1.652;2023-05-21T21:59:30;3.17;;;2.17;;
39948;SDS011;29070;48.102;-1.652;2023-05-21T22:04:30;9.70;;;2.33;;
39948;SDS011;29070;48.102;-1.652;2023-05-21T22:09:30;5.07;;;2.90;;
39948;SDS011;29070;48.102;-1.652;2023-05-21T22:14:31;6.00;;;2.50;;
39948;SDS011;29070;48.102;-1.652;2023-05-21T22:19:31;3.63;;;2.23;;
39948;SDS011;29070;48.102;-1.652;2023-05-21T22:24:31;7.67;;;2.93;;
39948;SDS011;29070;48.102;-1.652;2023-05-21T22:29:32;4.60;;;2.67;;
39948;SDS011;29070;48.102;-1.652;2023-05-21T22:34:32;4.43;;;2.87;;
39948;SDS011;29070;48.102;-1.652;2023-05-21T22:39:32;8.57;;;2.83;;
39948;SDS011;29070;48.102;-1.652;2023-05-21T22:44:33;8.10;;;2.57;;
39948;SDS011;29070;48.102;-1.652;2023-05-21T22:49:33;6.88;;;2.88;;
39948;SDS011;29070;48.102;-1.652;2023-05-21T22:54:34;5.22;;;3.08;;
39948;SDS011;29070;48.102;-1.652;2023-05-21T22:59:35;6.53;;;2.75;;
39948;SDS011;29070;48.102;-1.652;2023-05-21T23:04:35;10.80;;;3.27;;
39948;SDS011;29070;48.102;-1.652;2023-05-21T23:09:35;6.50;;;3.30;;
39948;SDS011;29070;48.102;-1.652;2023-05-21T23:14:36;5.40;;;2.90;;
39948;SDS011;29070;48.102;-1.652;2023-05-21T23:19:36;5.20;;;3.07;;
39948;SDS011;29070;48.102;-1.652;2023-05-21T23:24:38;6.47;;;2.95;;
39948;SDS011;29070;48.102;-1.652;2023-05-21T23:29:38;7.23;;;3.30;;
39948;SDS011;29070;48.102;-1.652;2023-05-21T23:34:38;8.93;;;3.70;;
39948;SDS011;29070;48.102;-1.652;2023-05-21T23:39:39;6.07;;;3.23;;
39948;SDS011;29070;48.102;-1.652;2023-05-21T23:44:39;6.57;;;3.10;;
39948;SDS011;29070;48.102;-1.652;2023-05-21T23:49:39;5.77;;;3.17;;
39948;SDS011;29070;48.102;-1.652;2023-05-21T23:54:40;7.80;;;3.43;;
39948;SDS011;29070;48.102;-1.652;2023-05-21T23:59:40;4.70;;;3.22;;
